createdAt,value
2019-06-10T00:02:10.910Z,6.33
2019-06-10T00:04:41.571Z,6.07
2019-06-10T00:07:11.863Z,6.70
2019-06-10T00:09:40.851Z,6.67
2019-06-10T00:12:12.365Z,6.73
2019-06-10T00:14:41.844Z,6.90
2019-06-10T00:17:11.177Z,7.17
2019-06-10T00:19:40.902Z,6.97
2019-06-10T00:22:11.488Z,7.07
2019-06-10T00:24:41.004Z,8.37
2019-06-10T00:27:21.599Z,7.60
2019-06-10T00:29:51.272Z,7.47
2019-06-10T00:32:53.464Z,7.63
2019-06-10T00:35:22.158Z,7.33
2019-06-10T00:37:51.305Z,7.90
2019-06-10T00:40:21.497Z,7.80
2019-06-10T00:42:50.770Z,8.23
2019-06-10T00:45:21.641Z,8.40
2019-06-10T00:47:52.059Z,8.80
2019-06-10T00:50:23.126Z,8.93
2019-06-10T00:52:52.084Z,8.13
2019-06-10T00:55:21.780Z,8.30
2019-06-10T00:57:52.239Z,7.87
2019-06-10T01:00:25.530Z,8.30
2019-06-10T01:02:51.854Z,8.47
2019-06-10T01:05:20.903Z,8.13
2019-06-10T01:07:50.871Z,8.50
2019-06-10T01:10:21.089Z,9.37
2019-06-10T01:12:51.360Z,8.80
2019-06-10T01:15:21.959Z,9.37
2019-06-10T01:17:52.417Z,8.63
2019-06-10T01:20:21.144Z,8.30
2019-06-10T01:22:51.633Z,9.37
2019-06-10T01:25:21.665Z,8.93
2019-06-10T01:27:51.521Z,9.67
2019-06-10T01:30:24.552Z,9.40
2019-06-10T01:32:50.989Z,9.87
2019-06-10T01:35:21.050Z,9.07
2019-06-10T01:37:53.354Z,9.47
2019-06-10T01:40:22.214Z,10.13
2019-06-10T01:42:50.991Z,9.67
2019-06-10T01:45:21.263Z,10.00
2019-06-10T01:47:51.103Z,9.70
2019-06-10T01:50:21.850Z,9.93
2019-06-10T01:53:00.677Z,9.93
2019-06-10T01:55:25.252Z,10.27
2019-06-10T01:57:53.948Z,10.27
2019-06-10T02:00:26.066Z,10.80
2019-06-10T02:02:54.821Z,10.10
2019-06-10T02:05:23.485Z,10.83
2019-06-10T02:07:53.049Z,9.87
2019-06-10T02:10:22.982Z,9.83
2019-06-10T02:12:51.861Z,9.73
2019-06-10T02:15:22.617Z,10.40
2019-06-10T02:17:51.104Z,10.20
2019-06-10T02:20:23.504Z,10.40
2019-06-10T02:22:51.546Z,9.90
2019-06-10T02:25:21.682Z,10.80
2019-06-10T02:27:52.481Z,10.93
2019-06-10T02:30:35.663Z,10.17
2019-06-10T02:32:52.447Z,10.33
2019-06-10T02:35:30.422Z,9.83
2019-06-10T02:37:54.359Z,10.63
2019-06-10T02:40:31.091Z,10.57
2019-06-10T02:42:55.321Z,10.13
2019-06-10T02:45:32.350Z,11.07
2019-06-10T02:47:58.988Z,10.47
2019-06-10T02:50:54.572Z,10.70
2019-06-10T02:53:30.168Z,10.77
2019-06-10T02:55:54.221Z,10.07
2019-06-10T02:58:30.379Z,11.43
2019-06-10T03:00:54.656Z,10.33
2019-06-10T03:03:35.829Z,10.27
2019-06-10T03:05:55.864Z,10.50
2019-06-10T03:08:43.387Z,11.33
2019-06-10T03:11:08.630Z,11.13
2019-06-10T03:13:38.381Z,10.90
2019-06-10T03:16:08.890Z,10.73
2019-06-10T03:18:39.413Z,10.40
2019-06-10T03:21:08.692Z,10.83
2019-06-10T03:23:42.661Z,10.43
2019-06-10T03:26:17.199Z,10.57
2019-06-10T03:28:46.052Z,10.40
2019-06-10T03:31:16.321Z,10.67
2019-06-10T03:33:47.850Z,11.03
2019-06-10T03:36:16.415Z,11.00
2019-06-10T03:38:47.124Z,10.90
2019-06-10T03:41:16.527Z,10.23
2019-06-10T03:43:45.647Z,10.40
2019-06-10T03:46:14.525Z,10.63
2019-06-10T03:48:43.517Z,11.13
2019-06-10T03:51:12.856Z,10.57
2019-06-10T03:53:42.587Z,11.30
2019-06-10T03:56:12.781Z,10.57
2019-06-10T03:58:43.046Z,10.67
2019-06-10T04:01:12.387Z,10.83
2019-06-10T04:03:42.651Z,11.10
2019-06-10T04:06:17.970Z,10.83
2019-06-10T04:08:46.780Z,11.10
2019-06-10T04:11:15.444Z,10.33
2019-06-10T04:13:47.029Z,10.73
2019-06-10T04:16:15.696Z,11.27
2019-06-10T04:18:44.645Z,10.23
2019-06-10T04:21:13.266Z,10.40
2019-06-10T04:23:42.604Z,10.53
2019-06-10T04:26:12.776Z,10.70
2019-06-10T04:28:43.056Z,10.23
2019-06-10T04:31:13.105Z,10.87
2019-06-10T04:33:42.621Z,10.83
2019-06-10T04:36:13.635Z,9.93
2019-06-10T04:38:43.171Z,10.73
2019-06-10T04:41:12.608Z,10.43
2019-06-10T04:43:43.149Z,10.27
2019-06-10T04:46:12.684Z,9.57
2019-06-10T04:48:42.618Z,9.20
2019-06-10T04:51:13.038Z,9.07
2019-06-10T04:53:43.509Z,9.70
2019-06-10T04:56:12.618Z,9.37
2019-06-10T04:58:43.265Z,8.83
2019-06-10T05:01:12.486Z,9.70
2019-06-10T05:03:43.371Z,9.43
2019-06-10T05:06:21.722Z,9.33
2019-06-10T05:08:49.442Z,9.47
2019-06-10T05:11:19.072Z,9.03
2019-06-10T05:13:47.694Z,9.00
2019-06-10T05:16:16.373Z,8.60
2019-06-10T05:18:46.796Z,9.27
2019-06-10T05:21:15.593Z,8.07
2019-06-10T05:23:44.239Z,8.90
2019-06-10T05:26:13.417Z,8.00
2019-06-10T05:28:43.323Z,8.03
2019-06-10T05:31:12.945Z,8.20
2019-06-10T05:33:42.651Z,8.17
2019-06-10T05:36:13.710Z,8.43
2019-06-10T05:38:43.389Z,8.37
2019-06-10T05:41:13.296Z,9.87
2019-06-10T05:43:43.088Z,8.67
2019-06-10T05:46:13.475Z,8.63
2019-06-10T05:48:45.094Z,8.60
2019-06-10T05:51:14.052Z,7.70
2019-06-10T05:53:45.739Z,7.97
2019-06-10T05:56:13.536Z,8.87
2019-06-10T05:58:43.591Z,8.30
2019-06-10T06:01:13.387Z,8.30
2019-06-10T06:03:46.842Z,7.97
2019-06-10T06:06:13.126Z,7.40
2019-06-10T06:08:42.903Z,7.77
2019-06-10T06:11:19.203Z,7.70
2019-06-10T06:13:53.879Z,7.60
2019-06-10T06:16:20.151Z,7.90
2019-06-10T06:18:53.381Z,7.70
2019-06-10T06:21:31.335Z,7.30
2019-06-10T06:23:56.054Z,7.50
2019-06-10T06:26:26.401Z,7.47
2019-06-10T06:28:55.183Z,7.90
2019-06-10T06:31:23.804Z,7.23
2019-06-10T06:33:55.879Z,7.20
2019-06-10T06:36:24.549Z,6.97
2019-06-10T06:38:53.359Z,7.50
2019-06-10T06:41:22.631Z,7.17
2019-06-10T06:43:53.062Z,6.70
2019-06-10T06:46:23.323Z,7.17
2019-06-10T06:48:53.203Z,7.10
2019-06-10T06:51:35.866Z,6.87
2019-06-10T06:53:56.385Z,6.90
2019-06-10T06:56:23.283Z,7.43
2019-06-10T06:58:52.577Z,6.60
2019-06-10T07:01:25.937Z,7.13
2019-06-10T07:03:54.908Z,7.03
2019-06-10T07:06:34.539Z,7.70
2019-06-10T07:09:08.181Z,7.30
2019-06-10T07:11:40.343Z,7.30
2019-06-10T07:14:10.336Z,7.13
2019-06-10T07:16:41.607Z,7.17
2019-06-10T07:19:09.941Z,7.93
2019-06-10T07:21:58.204Z,7.43
2019-06-10T07:24:34.230Z,7.30
2019-06-10T07:26:58.702Z,8.70
2019-06-10T07:29:27.326Z,8.13
2019-06-10T07:31:55.962Z,7.60
2019-06-10T07:34:24.638Z,7.63
2019-06-10T07:36:53.450Z,8.83
2019-06-10T07:39:22.700Z,9.07
2019-06-10T07:41:52.922Z,8.20
2019-06-10T07:44:22.662Z,7.37
2019-06-10T07:46:53.006Z,7.13
2019-06-10T07:49:23.879Z,7.17
2019-06-10T07:51:52.734Z,7.27
2019-06-10T07:54:23.054Z,7.77
2019-06-10T07:56:53.687Z,7.33
2019-06-10T07:59:23.338Z,8.00
2019-06-10T08:01:54.999Z,8.03
2019-06-10T08:04:22.709Z,8.40
2019-06-10T08:06:52.954Z,7.57
2019-06-10T08:09:22.776Z,7.80
2019-06-10T08:11:53.194Z,7.30
2019-06-10T08:14:22.317Z,7.47
2019-06-10T08:16:53.164Z,6.87
2019-06-10T08:19:31.554Z,7.30
2019-06-10T08:21:53.666Z,7.50
2019-06-10T08:24:22.391Z,7.20
2019-06-10T08:26:53.099Z,7.63
2019-06-10T08:29:23.428Z,6.93
2019-06-10T08:31:54.953Z,8.10
2019-06-10T08:34:23.620Z,7.53
2019-06-10T08:36:54.489Z,7.83
2019-06-10T08:39:29.822Z,7.57
2019-06-10T08:41:58.312Z,7.60
2019-06-10T08:44:26.894Z,7.43
2019-06-10T08:46:55.565Z,8.23
2019-06-10T08:49:24.108Z,6.90
2019-06-10T08:51:53.301Z,7.07
2019-06-10T08:54:23.413Z,8.35
2019-06-10T08:56:54.049Z,7.17
2019-06-10T08:59:23.223Z,7.57
2019-06-10T09:01:56.727Z,7.47
2019-06-10T09:04:22.845Z,8.53
2019-06-10T09:06:53.740Z,7.80
2019-06-10T09:09:22.572Z,9.10
2019-06-10T09:11:54.458Z,8.50
2019-06-10T09:14:23.491Z,9.23
2019-06-10T09:16:54.187Z,9.97
2019-06-10T09:19:22.774Z,11.17
2019-06-10T09:21:55.350Z,12.30
2019-06-10T09:24:22.240Z,13.17
2019-06-10T09:26:52.462Z,15.13
2019-06-10T09:29:22.282Z,15.87
2019-06-10T09:31:53.239Z,16.67
2019-06-10T09:34:23.804Z,17.10
2019-06-10T09:36:56.605Z,16.13
2019-06-10T09:39:27.175Z,16.30
2019-06-10T09:42:02.171Z,17.83
2019-06-10T09:44:26.114Z,17.73
2019-06-10T09:46:59.981Z,17.67
2019-06-10T09:49:27.953Z,15.40
2019-06-10T09:51:57.733Z,17.83
2019-06-10T09:54:26.752Z,16.73
2019-06-10T09:56:55.414Z,17.47
2019-06-10T09:59:24.055Z,18.97
2019-06-10T10:01:58.753Z,19.73
2019-06-10T10:04:23.680Z,20.43
2019-06-10T10:06:57.139Z,20.40
2019-06-10T10:09:25.968Z,19.13
2019-06-10T10:12:04.814Z,18.63
2019-06-10T10:14:28.016Z,17.57
2019-06-10T10:17:00.295Z,17.87
2019-06-10T10:19:27.228Z,17.03
2019-06-10T10:21:58.489Z,16.70
2019-06-10T10:24:26.341Z,15.87
2019-06-10T10:26:57.936Z,14.60
2019-06-10T10:29:25.118Z,15.10
2019-06-10T10:31:54.088Z,15.87
2019-06-10T10:34:23.862Z,15.30
2019-06-10T10:36:57.018Z,13.10
2019-06-10T10:39:24.626Z,13.30
2019-06-10T10:41:56.821Z,11.73
2019-06-10T10:44:23.428Z,11.07
2019-06-10T10:46:53.768Z,11.03
2019-06-10T10:49:22.403Z,11.50
2019-06-10T10:51:51.189Z,11.97
2019-06-10T10:54:29.848Z,11.03
2019-06-10T10:56:55.180Z,11.87
2019-06-10T10:59:22.055Z,10.77
2019-06-10T11:01:51.595Z,10.50
2019-06-10T11:04:23.130Z,11.77
2019-06-10T11:06:54.419Z,11.63
2019-06-10T11:09:24.517Z,10.97
2019-06-10T11:11:57.366Z,12.03
2019-06-10T11:14:26.788Z,12.73
2019-06-10T11:16:57.484Z,13.17
2019-06-10T11:19:25.836Z,13.03
2019-06-10T11:21:54.338Z,13.90
2019-06-10T11:24:33.541Z,12.35
2019-06-10T11:26:56.302Z,12.10
2019-06-10T11:29:23.394Z,12.37
2019-06-10T11:31:55.046Z,13.93
2019-06-10T11:34:22.593Z,12.93
2019-06-10T11:36:55.094Z,13.07
2019-06-10T11:39:22.535Z,13.83
2019-06-10T11:41:53.250Z,14.47
2019-06-10T11:44:22.507Z,14.93
2019-06-10T11:46:53.984Z,15.50
2019-06-10T11:49:23.763Z,15.37
2019-06-10T11:51:53.572Z,15.37
2019-06-10T11:54:24.002Z,17.43
2019-06-10T11:56:54.649Z,17.63
2019-06-10T11:59:22.682Z,19.37
2019-06-10T12:01:55.390Z,21.17
2019-06-10T12:04:23.783Z,20.37
2019-06-10T12:06:52.724Z,21.77
2019-06-10T12:09:23.007Z,24.43
2019-06-10T12:11:54.694Z,25.43
2019-06-10T12:14:26.800Z,29.03
2019-06-10T12:19:23.517Z,26.47
2019-06-10T12:21:55.632Z,28.23
2019-06-10T12:24:23.131Z,24.63
2019-06-10T12:26:57.971Z,22.20
2019-06-10T12:29:24.028Z,20.47
2019-06-10T12:31:56.119Z,21.83
2019-06-10T12:34:22.903Z,23.43
2019-06-10T12:36:56.301Z,17.97
2019-06-10T12:39:22.909Z,19.52
2019-06-10T12:41:54.844Z,16.13
2019-06-10T12:44:23.839Z,15.13
2019-06-10T12:46:54.906Z,14.67
2019-06-10T12:49:32.054Z,15.00
2019-06-10T12:52:02.597Z,14.20
2019-06-10T12:54:32.633Z,13.33
2019-06-10T12:57:04.694Z,13.80
2019-06-10T12:59:32.433Z,12.30
2019-06-10T13:02:11.337Z,12.23
2019-06-10T13:04:32.876Z,12.50
2019-06-10T13:07:05.191Z,11.57
2019-06-10T13:09:32.735Z,12.82
2019-06-10T13:12:02.038Z,13.13
2019-06-10T13:14:32.636Z,13.57
2019-06-10T13:17:03.011Z,13.87
2019-06-10T13:19:34.349Z,13.40
2019-06-10T13:22:04.546Z,13.27
2019-06-10T13:24:33.760Z,13.63
2019-06-10T13:27:04.774Z,14.43
2019-06-10T13:29:33.250Z,13.93
2019-06-10T13:32:04.175Z,13.43
2019-06-10T13:34:33.472Z,15.80
2019-06-10T13:37:03.890Z,16.10
2019-06-10T13:39:32.656Z,14.37
2019-06-10T13:47:33.173Z,16.10
2019-06-10T13:53:47.098Z,16.07
2019-06-10T13:59:17.898Z,16.30
2019-06-10T14:01:53.545Z,15.97
2019-06-10T14:04:25.715Z,15.87
2019-06-10T14:07:14.513Z,14.47
2019-06-10T14:16:55.508Z,14.90
2019-06-10T14:21:17.990Z,14.03
2019-06-10T14:22:32.854Z,14.73
2019-06-10T14:25:29.458Z,13.70
2019-06-10T14:28:04.331Z,16.03
2019-06-10T14:30:37.828Z,14.27
2019-06-10T14:33:07.435Z,15.43
2019-06-10T14:35:36.131Z,15.77
2019-06-10T14:38:24.103Z,16.10
2019-06-10T14:41:14.764Z,15.53
2019-06-10T14:44:04.598Z,15.43
2019-06-10T14:46:36.866Z,16.77
2019-06-10T14:49:08.847Z,18.60
2019-06-10T14:51:54.264Z,17.37
2019-06-10T14:57:42.688Z,17.80
2019-06-10T15:00:15.661Z,18.87
2019-06-10T15:02:44.542Z,18.63
2019-06-10T15:05:17.519Z,18.90
2019-06-10T15:07:47.794Z,19.83
2019-06-10T15:10:17.867Z,19.20
2019-06-10T15:16:17.609Z,22.37
2019-06-10T15:22:43.167Z,20.37
2019-06-10T15:38:59.461Z,21.03
2019-06-10T15:41:47.735Z,22.10
2019-06-10T15:45:02.299Z,24.87
2019-06-10T15:47:05.510Z,24.33
2019-06-10T15:52:52.420Z,24.33
2019-06-10T15:56:08.938Z,23.00
2019-06-10T15:58:12.916Z,23.30
2019-06-10T16:00:42.604Z,24.40
2019-06-10T16:22:30.027Z,24.93
2019-06-10T16:25:12.742Z,22.73
2019-06-10T16:27:58.274Z,20.80
2019-06-10T16:30:29.284Z,21.17
2019-06-10T16:32:57.990Z,21.83
2019-06-10T16:35:28.997Z,19.83
2019-06-10T16:38:01.535Z,20.13
2019-06-10T16:40:35.067Z,18.93
2019-06-10T16:43:09.427Z,19.87
2019-06-10T16:45:38.187Z,17.33
2019-06-10T16:48:09.793Z,16.57
2019-06-10T16:50:38.684Z,14.77
2019-06-10T16:53:36.990Z,12.10
2019-06-10T16:56:08.896Z,8.93
2019-06-10T16:58:39.175Z,8.47
2019-06-10T17:04:01.510Z,8.30
2019-06-10T17:06:27.917Z,8.47
2019-06-10T17:08:56.683Z,7.90
2019-06-10T17:11:27.514Z,6.97
2019-06-10T17:13:56.213Z,7.00
2019-06-10T17:16:26.407Z,6.70
2019-06-10T17:18:57.086Z,4.50
2019-06-10T17:21:29.737Z,4.10
2019-06-10T17:23:56.476Z,3.47
2019-06-10T17:26:30.575Z,3.70
2019-06-10T17:28:55.725Z,3.30
2019-06-10T17:31:28.494Z,3.23
2019-06-10T17:33:57.846Z,3.20
2019-06-10T17:36:29.509Z,2.53
2019-06-10T17:38:57.225Z,2.37
2019-06-10T17:41:29.015Z,2.40
2019-06-10T17:43:56.566Z,1.77
2019-06-10T17:46:27.862Z,2.10
2019-06-10T17:48:56.210Z,1.87
2019-06-10T17:51:27.486Z,1.90
2019-06-10T17:53:55.601Z,2.10
2019-06-10T17:56:26.261Z,2.53
2019-06-10T17:58:57.936Z,2.63
2019-06-10T18:01:25.530Z,2.53
2019-06-10T18:03:54.529Z,2.60
2019-06-10T18:06:25.441Z,2.70
2019-06-10T18:08:53.949Z,2.80
2019-06-10T18:11:24.309Z,3.03
2019-06-10T18:13:52.841Z,3.30
2019-06-10T18:16:22.803Z,3.57
2019-06-10T18:18:52.493Z,2.97
2019-06-10T18:21:22.340Z,2.83
2019-06-10T18:23:52.897Z,3.47
2019-06-10T18:26:23.078Z,3.53
2019-06-10T18:29:01.807Z,2.90
2019-06-10T18:31:23.395Z,3.07
2019-06-10T18:33:53.074Z,3.40
2019-06-10T18:36:24.320Z,2.90
2019-06-10T18:38:52.727Z,3.50
2019-06-10T18:41:22.370Z,3.30
2019-06-10T18:43:51.324Z,3.90
2019-06-10T18:46:19.939Z,3.70
2019-06-10T18:48:48.667Z,3.87
2019-06-10T18:51:17.342Z,3.87
2019-06-10T18:53:46.088Z,3.90
2019-06-10T18:56:15.936Z,4.20
2019-06-10T18:58:44.520Z,4.10
2019-06-10T19:01:14.604Z,4.03
2019-06-10T19:03:43.582Z,4.83
2019-06-10T19:06:12.670Z,4.50
2019-06-10T19:08:44.329Z,4.00
2019-06-10T19:11:11.897Z,4.37
2019-06-10T19:13:43.319Z,3.60
2019-06-10T19:16:13.016Z,4.13
2019-06-10T19:18:43.185Z,4.83
2019-06-10T19:21:12.825Z,4.37
2019-06-10T19:23:43.917Z,5.20
2019-06-10T19:26:13.449Z,5.03
2019-06-10T19:28:45.149Z,4.90
2019-06-10T19:31:13.234Z,5.40
2019-06-10T19:33:45.181Z,4.93
2019-06-10T19:36:16.377Z,5.27
2019-06-10T19:38:44.992Z,5.27
2019-06-10T19:41:13.750Z,5.30
2019-06-10T19:43:45.284Z,5.87
2019-06-10T19:46:13.068Z,4.93
2019-06-10T19:48:51.043Z,4.60
2019-06-10T19:51:12.252Z,5.03
2019-06-10T19:53:43.802Z,4.90
2019-06-10T19:56:13.012Z,5.40
2019-06-10T19:58:43.402Z,5.20
2019-06-10T20:01:12.049Z,5.10
2019-06-10T20:03:44.652Z,5.73
2019-06-10T20:06:13.029Z,5.27
2019-06-10T20:08:44.212Z,5.30
2019-06-10T20:11:12.409Z,5.43
2019-06-10T20:13:43.646Z,5.07
2019-06-10T20:16:12.050Z,4.50
2019-06-10T20:18:45.195Z,5.23
2019-06-10T20:21:12.884Z,5.13
2019-06-10T20:23:44.563Z,4.37
2019-06-10T20:26:12.190Z,4.07
2019-06-10T20:28:43.333Z,3.40
2019-06-10T20:31:12.748Z,3.37
2019-06-10T20:33:43.058Z,3.50
2019-06-10T20:36:21.626Z,3.70
2019-06-10T20:38:46.407Z,3.40
2019-06-10T20:41:14.082Z,2.30
2019-06-10T20:43:44.284Z,1.73
2019-06-10T20:46:13.406Z,2.03
2019-06-10T20:48:45.446Z,1.67
2019-06-10T20:51:14.261Z,1.40
2019-06-10T20:53:44.376Z,0.80
2019-06-10T20:56:13.422Z,0.90
2019-06-10T20:58:43.765Z,0.97
2019-06-10T21:01:12.627Z,1.07
2019-06-10T21:03:43.802Z,1.27
2019-06-10T21:06:13.763Z,1.17
2019-06-10T21:08:46.816Z,1.43
2019-06-10T21:11:13.928Z,0.90
2019-06-10T21:13:46.020Z,0.90
2019-06-10T21:16:13.054Z,1.07
2019-06-10T21:18:45.335Z,0.83
2019-06-10T21:21:12.193Z,1.33
2019-06-10T21:24:02.086Z,1.27
2019-06-10T21:26:43.321Z,1.00
2019-06-10T21:29:09.405Z,0.90
2019-06-10T21:31:38.411Z,0.93
2019-06-10T21:34:07.323Z,1.07
2019-06-10T21:36:36.176Z,1.10
2019-06-10T21:39:07.505Z,1.07
2019-06-10T21:41:36.335Z,1.00
2019-06-10T21:44:06.786Z,0.80
2019-06-10T21:46:35.613Z,0.70
2019-06-10T21:49:07.335Z,0.80
2019-06-10T21:51:35.126Z,1.10
2019-06-10T21:54:04.030Z,1.00
2019-06-10T21:56:32.941Z,0.80
2019-06-10T21:59:02.484Z,0.83
2019-06-10T22:01:32.603Z,0.80
2019-06-10T22:04:04.408Z,1.37
2019-06-10T22:06:33.166Z,1.00
2019-06-10T22:09:04.047Z,1.00
2019-06-10T22:11:32.585Z,1.10
2019-06-10T22:14:02.833Z,1.17
2019-06-10T22:16:32.957Z,1.00
2019-06-10T22:19:03.250Z,1.20
2019-06-10T22:21:32.692Z,1.00
2019-06-10T22:24:02.230Z,1.20
2019-06-10T22:26:32.279Z,1.23
2019-06-10T22:29:01.057Z,1.40
2019-06-10T22:31:32.461Z,1.37
2019-06-10T22:34:00.217Z,1.57
2019-06-10T22:36:28.901Z,1.57
2019-06-10T22:38:59.244Z,2.50
2019-06-10T22:41:28.219Z,3.20
2019-06-10T22:43:57.570Z,4.00
2019-06-10T22:46:26.445Z,5.00
2019-06-10T22:48:55.392Z,5.10
2019-06-10T22:51:26.191Z,4.80
2019-06-10T22:53:57.019Z,4.13
2019-06-10T22:56:25.401Z,3.90
2019-06-10T22:58:55.643Z,3.87
2019-06-10T23:01:34.424Z,3.73
2019-06-10T23:03:56.244Z,2.77
2019-06-10T23:06:25.287Z,2.90
2019-06-10T23:08:56.198Z,2.93
2019-06-10T23:11:24.629Z,3.10
2019-06-10T23:13:54.840Z,2.93
2019-06-10T23:16:23.667Z,2.77
2019-06-10T23:18:55.005Z,3.10
2019-06-10T23:21:22.862Z,2.97
2019-06-10T23:23:53.829Z,2.80
2019-06-10T23:26:22.602Z,2.80
2019-06-10T23:28:54.056Z,2.20
2019-06-10T23:33:56.858Z,2.10
2019-06-10T23:36:25.632Z,2.27
2019-06-10T23:38:54.837Z,2.20
2019-06-10T23:41:23.558Z,2.60
2019-06-10T23:43:53.034Z,2.20
2019-06-10T23:46:22.755Z,2.60
2019-06-10T23:48:51.664Z,2.60
2019-06-10T23:51:22.631Z,2.60
2019-06-10T23:53:55.349Z,2.63
2019-06-10T23:56:22.131Z,3.10
2019-06-10T23:58:53.743Z,3.07
